sensor_id;sensor_type;location;lat;lon;timestamp;temperature;humidity
21883;DHT22;11106;47.864;13.054;2022-07-29T00:04:23;20.70;99.90
21883;DHT22;11106;47.864;13.054;2022-07-29T00:09:24;20.70;99.90
21883;DHT22;11106;47.864;13.054;2022-07-29T00:14:25;20.70;99.90
21883;DHT22;11106;47.864;13.054;2022-07-29T00:19:26;20.70;99.90
21883;DHT22;11106;47.864;13.054;2022-07-29T00:24:26;20.60;99.90
21883;DHT22;11106;47.864;13.054;2022-07-29T00:29:27;20.50;99.90
21883;DHT22;11106;47.864;13.054;2022-07-29T00:34:28;20.30;99.90
21883;DHT22;11106;47.864;13.054;2022-07-29T00:39:47;20.20;99.90
21883;DHT22;11106;47.864;13.054;2022-07-29T00:44:48;20.10;99.90
21883;DHT22;11106;47.864;13.054;2022-07-29T00:49:49;20.10;99.90
21883;DHT22;11106;47.864;13.054;2022-07-29T00:54:50;20.00;99.90
21883;DHT22;11106;47.864;13.054;2022-07-29T00:59:51;19.90;99.90
21883;DHT22;11106;47.864;13.054;2022-07-29T01:04:51;19.90;99.90
21883;DHT22;11106;47.864;13.054;2022-07-29T01:09:53;19.80;99.90
21883;DHT22;11106;47.864;13.054;2022-07-29T01:14:55;19.90;99.90
21883;DHT22;11106;47.864;13.054;2022-07-29T01:25:58;19.90;99.90
21883;DHT22;11106;47.864;13.054;2022-07-29T01:31:03;19.90;99.90
21883;DHT22;11106;47.864;13.054;2022-07-29T01:36:10;19.80;99.90
21883;DHT22;11106;47.864;13.054;2022-07-29T01:41:16;19.70;99.90
21883;DHT22;11106;47.864;13.054;2022-07-29T01:46:20;19.70;99.90
21883;DHT22;11106;47.864;13.054;2022-07-29T01:51:25;19.60;99.90
21883;DHT22;11106;47.864;13.054;2022-07-29T01:56:27;19.60;99.90
21883;DHT22;11106;47.864;13.054;2022-07-29T02:01:31;19.50;99.90
21883;DHT22;11106;47.864;13.054;2022-07-29T02:06:33;19.50;99.90
21883;DHT22;11106;47.864;13.054;2022-07-29T02:11:35;19.50;99.90
21883;DHT22;11106;47.864;13.054;2022-07-29T02:16:36;19.50;99.90
21883;DHT22;11106;47.864;13.054;2022-07-29T02:21:37;19.50;99.90
21883;DHT22;11106;47.864;13.054;2022-07-29T02:26:41;19.40;99.90
21883;DHT22;11106;47.864;13.054;2022-07-29T02:31:44;19.40;99.90
21883;DHT22;11106;47.864;13.054;2022-07-29T02:36:48;19.40;99.90
21883;DHT22;11106;47.864;13.054;2022-07-29T02:42:05;19.40;99.90
21883;DHT22;11106;47.864;13.054;2022-07-29T02:47:15;19.40;99.90
21883;DHT22;11106;47.864;13.054;2022-07-29T02:52:26;19.30;99.90
21883;DHT22;11106;47.864;13.054;2022-07-29T03:02:33;19.30;99.90
21883;DHT22;11106;47.864;13.054;2022-07-29T03:07:34;19.30;99.90
21883;DHT22;11106;47.864;13.054;2022-07-29T03:12:36;19.30;99.90
21883;DHT22;11106;47.864;13.054;2022-07-29T03:17:37;19.40;99.90
21883;DHT22;11106;47.864;13.054;2022-07-29T03:22:42;19.40;99.90
21883;DHT22;11106;47.864;13.054;2022-07-29T03:27:48;19.30;99.90
21883;DHT22;11106;47.864;13.054;2022-07-29T03:32:50;19.30;99.90
21883;DHT22;11106;47.864;13.054;2022-07-29T03:37:50;19.30;99.90
21883;DHT22;11106;47.864;13.054;2022-07-29T03:42:53;19.30;99.90
21883;DHT22;11106;47.864;13.054;2022-07-29T03:47:59;19.20;99.90
21883;DHT22;11106;47.864;13.054;2022-07-29T03:53:02;19.20;99.90
21883;DHT22;11106;47.864;13.054;2022-07-29T03:58:03;19.20;99.90
21883;DHT22;11106;47.864;13.054;2022-07-29T04:03:04;19.10;99.90
21883;DHT22;11106;47.864;13.054;2022-07-29T04:08:05;19.10;99.90
21883;DHT22;11106;47.864;13.054;2022-07-29T04:13:06;19.10;99.90
21883;DHT22;11106;47.864;13.054;2022-07-29T04:18:06;19.00;99.90
21883;DHT22;11106;47.864;13.054;2022-07-29T04:23:07;19.00;99.90
21883;DHT22;11106;47.864;13.054;2022-07-29T04:28:08;19.00;99.90
21883;DHT22;11106;47.864;13.054;2022-07-29T04:33:09;19.00;99.90
21883;DHT22;11106;47.864;13.054;2022-07-29T04:38:10;19.10;99.90
21883;DHT22;11106;47.864;13.054;2022-07-29T04:43:11;19.10;99.90
21883;DHT22;11106;47.864;13.054;2022-07-29T04:48:12;19.20;99.90
21883;DHT22;11106;47.864;13.054;2022-07-29T04:53:12;19.20;99.90
21883;DHT22;11106;47.864;13.054;2022-07-29T04:58:13;19.30;99.90
21883;DHT22;11106;47.864;13.054;2022-07-29T05:03:14;19.20;99.90
21883;DHT22;11106;47.864;13.054;2022-07-29T05:08:14;19.20;99.90
21883;DHT22;11106;47.864;13.054;2022-07-29T05:13:15;19.30;99.90
21883;DHT22;11106;47.864;13.054;2022-07-29T05:18:16;19.30;99.90
21883;DHT22;11106;47.864;13.054;2022-07-29T05:23:17;19.30;99.90
21883;DHT22;11106;47.864;13.054;2022-07-29T05:28:17;19.40;99.90
21883;DHT22;11106;47.864;13.054;2022-07-29T05:33:18;19.50;99.90
21883;DHT22;11106;47.864;13.054;2022-07-29T05:38:18;19.50;99.90
21883;DHT22;11106;47.864;13.054;2022-07-29T05:43:19;19.70;99.90
21883;DHT22;11106;47.864;13.054;2022-07-29T05:48:21;19.80;99.90
21883;DHT22;11106;47.864;13.054;2022-07-29T05:53:21;20.10;99.90
21883;DHT22;11106;47.864;13.054;2022-07-29T05:58:22;20.10;99.90
21883;DHT22;11106;47.864;13.054;2022-07-29T06:03:23;20.20;99.90
21883;DHT22;11106;47.864;13.054;2022-07-29T06:08:23;20.40;99.90
21883;DHT22;11106;47.864;13.054;2022-07-29T06:13:24;20.40;99.90
21883;DHT22;11106;47.864;13.054;2022-07-29T06:18:25;20.10;99.90
21883;DHT22;11106;47.864;13.054;2022-07-29T06:23:26;20.10;99.90
21883;DHT22;11106;47.864;13.054;2022-07-29T06:28:26;20.00;99.90
21883;DHT22;11106;47.864;13.054;2022-07-29T06:33:27;20.10;99.90
21883;DHT22;11106;47.864;13.054;2022-07-29T06:38:28;20.20;99.90
21883;DHT22;11106;47.864;13.054;2022-07-29T06:43:36;20.40;99.90
21883;DHT22;11106;47.864;13.054;2022-07-29T06:48:41;20.50;99.90
21883;DHT22;11106;47.864;13.054;2022-07-29T06:53:42;20.60;99.90
21883;DHT22;11106;47.864;13.054;2022-07-29T06:58:43;20.70;99.90
21883;DHT22;11106;47.864;13.054;2022-07-29T07:03:44;20.90;99.90
21883;DHT22;11106;47.864;13.054;2022-07-29T07:08:44;21.30;99.90
21883;DHT22;11106;47.864;13.054;2022-07-29T07:13:45;21.90;99.90
21883;DHT22;11106;47.864;13.054;2022-07-29T07:18:46;22.40;99.90
21883;DHT22;11106;47.864;13.054;2022-07-29T07:23:46;22.50;99.90
21883;DHT22;11106;47.864;13.054;2022-07-29T07:28:47;22.70;99.90
21883;DHT22;11106;47.864;13.054;2022-07-29T07:33:47;22.90;99.90
21883;DHT22;11106;47.864;13.054;2022-07-29T07:38:48;23.20;99.90
21883;DHT22;11106;47.864;13.054;2022-07-29T07:43:49;23.70;99.90
21883;DHT22;11106;47.864;13.054;2022-07-29T07:48:50;24.10;99.90
21883;DHT22;11106;47.864;13.054;2022-07-29T07:53:52;24.10;99.90
21883;DHT22;11106;47.864;13.054;2022-07-29T07:58:53;24.60;99.70
21883;DHT22;11106;47.864;13.054;2022-07-29T08:03:53;25.10;97.90
21883;DHT22;11106;47.864;13.054;2022-07-29T08:08:54;25.10;97.20
21883;DHT22;11106;47.864;13.054;2022-07-29T08:13:54;25.70;98.40
21883;DHT22;11106;47.864;13.054;2022-07-29T08:18:55;26.50;96.50
21883;DHT22;11106;47.864;13.054;2022-07-29T08:23:57;26.40;95.00
21883;DHT22;11106;47.864;13.054;2022-07-29T08:29:16;27.00;96.40
21883;DHT22;11106;47.864;13.054;2022-07-29T08:34:17;27.50;94.60
21883;DHT22;11106;47.864;13.054;2022-07-29T08:39:17;28.00;94.40
21883;DHT22;11106;47.864;13.054;2022-07-29T08:44:18;27.80;91.80
21883;DHT22;11106;47.864;13.054;2022-07-29T08:49:19;27.20;91.70
21883;DHT22;11106;47.864;13.054;2022-07-29T08:54:21;26.40;92.50
21883;DHT22;11106;47.864;13.054;2022-07-29T08:59:25;26.70;94.40
21883;DHT22;11106;47.864;13.054;2022-07-29T09:04:30;26.80;92.60
21883;DHT22;11106;47.864;13.054;2022-07-29T09:09:33;26.60;91.90
21883;DHT22;11106;47.864;13.054;2022-07-29T09:14:34;26.70;91.70
21883;DHT22;11106;47.864;13.054;2022-07-29T09:19:36;26.60;92.50
21883;DHT22;11106;47.864;13.054;2022-07-29T09:24:46;26.80;90.90
21883;DHT22;11106;47.864;13.054;2022-07-29T09:30:03;27.20;91.10
21883;DHT22;11106;47.864;13.054;2022-07-29T09:35:13;27.20;90.40
21883;DHT22;11106;47.864;13.054;2022-07-29T09:40:16;27.80;91.20
21883;DHT22;11106;47.864;13.054;2022-07-29T09:45:33;27.60;88.10
21883;DHT22;11106;47.864;13.054;2022-07-29T09:50:37;27.90;91.20
21883;DHT22;11106;47.864;13.054;2022-07-29T09:55:45;28.50;90.90
21883;DHT22;11106;47.864;13.054;2022-07-29T10:00:47;29.00;86.90
21883;DHT22;11106;47.864;13.054;2022-07-29T10:06:07;28.60;84.80
21883;DHT22;11106;47.864;13.054;2022-07-29T10:11:09;29.00;88.70
21883;DHT22;11106;47.864;13.054;2022-07-29T10:16:11;28.80;84.00
21883;DHT22;11106;47.864;13.054;2022-07-29T10:21:12;29.10;84.10
21883;DHT22;11106;47.864;13.054;2022-07-29T10:26:12;28.80;75.70
21883;DHT22;11106;47.864;13.054;2022-07-29T10:31:22;29.00;83.90
21883;DHT22;11106;47.864;13.054;2022-07-29T10:36:38;29.40;86.30
21883;DHT22;11106;47.864;13.054;2022-07-29T10:46:54;29.40;81.20
21883;DHT22;11106;47.864;13.054;2022-07-29T10:51:55;29.60;79.20
21883;DHT22;11106;47.864;13.054;2022-07-29T10:56:56;29.70;78.10
21883;DHT22;11106;47.864;13.054;2022-07-29T11:01:56;29.60;81.00
21883;DHT22;11106;47.864;13.054;2022-07-29T11:12:01;29.50;82.30
21883;DHT22;11106;47.864;13.054;2022-07-29T11:17:04;29.70;82.40
21883;DHT22;11106;47.864;13.054;2022-07-29T11:22:07;30.00;82.20
21883;DHT22;11106;47.864;13.054;2022-07-29T11:27:09;30.30;79.00
21883;DHT22;11106;47.864;13.054;2022-07-29T11:32:13;30.30;79.80
21883;DHT22;11106;47.864;13.054;2022-07-29T11:37:16;30.10;75.30
21883;DHT22;11106;47.864;13.054;2022-07-29T11:47:21;29.50;74.70
21883;DHT22;11106;47.864;13.054;2022-07-29T11:52:21;29.20;76.30
21883;DHT22;11106;47.864;13.054;2022-07-29T11:57:25;29.30;81.40
21883;DHT22;11106;47.864;13.054;2022-07-29T12:02:37;29.40;81.80
21883;DHT22;11106;47.864;13.054;2022-07-29T12:07:38;29.50;80.30
21883;DHT22;11106;47.864;13.054;2022-07-29T12:12:39;29.40;76.80
21883;DHT22;11106;47.864;13.054;2022-07-29T12:17:40;29.40;80.20
21883;DHT22;11106;47.864;13.054;2022-07-29T12:22:41;29.50;82.50
21883;DHT22;11106;47.864;13.054;2022-07-29T12:27:44;29.80;81.60
21883;DHT22;11106;47.864;13.054;2022-07-29T12:32:45;29.60;79.70
21883;DHT22;11106;47.864;13.054;2022-07-29T12:37:47;29.60;77.80
21883;DHT22;11106;47.864;13.054;2022-07-29T12:48:10;29.60;75.10
21883;DHT22;11106;47.864;13.054;2022-07-29T12:53:11;29.70;75.50
21883;DHT22;11106;47.864;13.054;2022-07-29T12:58:12;29.70;76.50
21883;DHT22;11106;47.864;13.054;2022-07-29T13:03:12;29.80;76.70
21883;DHT22;11106;47.864;13.054;2022-07-29T13:08:14;30.00;77.00
21883;DHT22;11106;47.864;13.054;2022-07-29T13:13:14;29.90;71.80
21883;DHT22;11106;47.864;13.054;2022-07-29T13:18:28;29.90;73.20
21883;DHT22;11106;47.864;13.054;2022-07-29T13:23:29;30.00;71.90
21883;DHT22;11106;47.864;13.054;2022-07-29T13:28:30;29.70;73.20
21883;DHT22;11106;47.864;13.054;2022-07-29T13:33:30;29.60;70.50
21883;DHT22;11106;47.864;13.054;2022-07-29T13:38:31;29.40;71.20
21883;DHT22;11106;47.864;13.054;2022-07-29T13:43:32;29.50;75.70
21883;DHT22;11106;47.864;13.054;2022-07-29T13:48:33;29.60;75.20
21883;DHT22;11106;47.864;13.054;2022-07-29T13:53:34;29.60;72.60
21883;DHT22;11106;47.864;13.054;2022-07-29T13:58:34;29.50;74.30
21883;DHT22;11106;47.864;13.054;2022-07-29T14:03:35;29.40;74.00
21883;DHT22;11106;47.864;13.054;2022-07-29T14:08:38;29.40;72.90
21883;DHT22;11106;47.864;13.054;2022-07-29T14:13:40;29.50;74.00
21883;DHT22;11106;47.864;13.054;2022-07-29T14:18:40;29.60;71.70
21883;DHT22;11106;47.864;13.054;2022-07-29T14:23:41;29.60;71.20
21883;DHT22;11106;47.864;13.054;2022-07-29T14:28:42;29.50;70.50
21883;DHT22;11106;47.864;13.054;2022-07-29T14:33:43;29.50;73.00
21883;DHT22;11106;47.864;13.054;2022-07-29T14:38:44;29.40;68.70
21883;DHT22;11106;47.864;13.054;2022-07-29T14:43:45;29.40;69.30
21883;DHT22;11106;47.864;13.054;2022-07-29T14:48:45;29.50;69.40
21883;DHT22;11106;47.864;13.054;2022-07-29T14:53:46;29.50;71.50
21883;DHT22;11106;47.864;13.054;2022-07-29T14:58:47;29.50;71.90
21883;DHT22;11106;47.864;13.054;2022-07-29T15:03:47;29.50;70.50
21883;DHT22;11106;47.864;13.054;2022-07-29T15:08:48;29.40;75.30
21883;DHT22;11106;47.864;13.054;2022-07-29T15:13:49;29.40;77.70
21883;DHT22;11106;47.864;13.054;2022-07-29T15:18:50;29.50;78.50
21883;DHT22;11106;47.864;13.054;2022-07-29T15:23:50;29.40;78.40
21883;DHT22;11106;47.864;13.054;2022-07-29T15:28:51;29.40;78.40
21883;DHT22;11106;47.864;13.054;2022-07-29T15:33:52;29.50;79.50
21883;DHT22;11106;47.864;13.054;2022-07-29T15:38:53;29.50;77.60
21883;DHT22;11106;47.864;13.054;2022-07-29T15:43:54;29.60;73.10
21883;DHT22;11106;47.864;13.054;2022-07-29T15:48:55;29.50;73.90
21883;DHT22;11106;47.864;13.054;2022-07-29T15:53:57;29.50;73.60
21883;DHT22;11106;47.864;13.054;2022-07-29T16:39:19;29.40;71.90
21883;DHT22;11106;47.864;13.054;2022-07-29T16:44:20;28.70;79.70
21883;DHT22;11106;47.864;13.054;2022-07-29T16:49:21;28.50;78.10
21883;DHT22;11106;47.864;13.054;2022-07-29T16:54:22;28.50;82.90
21883;DHT22;11106;47.864;13.054;2022-07-29T16:59:23;28.40;84.00
21883;DHT22;11106;47.864;13.054;2022-07-29T17:04:24;28.10;85.60
21883;DHT22;11106;47.864;13.054;2022-07-29T17:09:24;27.90;85.00
21883;DHT22;11106;47.864;13.054;2022-07-29T17:14:28;27.80;86.70
21883;DHT22;11106;47.864;13.054;2022-07-29T17:19:31;27.50;85.30
21883;DHT22;11106;47.864;13.054;2022-07-29T17:24:33;27.30;84.80
21883;DHT22;11106;47.864;13.054;2022-07-29T17:29:34;27.20;86.40
21883;DHT22;11106;47.864;13.054;2022-07-29T17:34:36;27.10;87.20
21883;DHT22;11106;47.864;13.054;2022-07-29T17:39:43;26.80;86.50
21883;DHT22;11106;47.864;13.054;2022-07-29T17:56:09;26.10;87.80
21883;DHT22;11106;47.864;13.054;2022-07-29T18:01:10;25.80;91.90
21883;DHT22;11106;47.864;13.054;2022-07-29T18:06:11;25.40;93.50
21883;DHT22;11106;47.864;13.054;2022-07-29T18:11:13;25.20;95.30
21883;DHT22;11106;47.864;13.054;2022-07-29T18:16:14;24.90;96.80
21883;DHT22;11106;47.864;13.054;2022-07-29T18:21:14;24.00;97.90
21883;DHT22;11106;47.864;13.054;2022-07-29T18:26:15;23.40;99.90
21883;DHT22;11106;47.864;13.054;2022-07-29T18:31:16;23.00;99.90
21883;DHT22;11106;47.864;13.054;2022-07-29T18:36:17;22.30;99.90
21883;DHT22;11106;47.864;13.054;2022-07-29T18:41:17;21.70;99.90
21883;DHT22;11106;47.864;13.054;2022-07-29T18:46:18;21.30;99.90
21883;DHT22;11106;47.864;13.054;2022-07-29T18:51:18;21.30;99.90
21883;DHT22;11106;47.864;13.054;2022-07-29T18:56:19;21.00;99.90
21883;DHT22;11106;47.864;13.054;2022-07-29T19:01:20;20.70;99.90
21883;DHT22;11106;47.864;13.054;2022-07-29T19:06:20;20.50;99.90
21883;DHT22;11106;47.864;13.054;2022-07-29T19:11:21;20.30;99.90
21883;DHT22;11106;47.864;13.054;2022-07-29T19:16:22;20.20;99.90
21883;DHT22;11106;47.864;13.054;2022-07-29T19:21:23;20.10;99.90
21883;DHT22;11106;47.864;13.054;2022-07-29T19:26:24;20.00;99.90
21883;DHT22;11106;47.864;13.054;2022-07-29T19:31:25;20.00;99.90
21883;DHT22;11106;47.864;13.054;2022-07-29T19:36:25;19.90;99.90
21883;DHT22;11106;47.864;13.054;2022-07-29T19:41:26;19.80;99.90
21883;DHT22;11106;47.864;13.054;2022-07-29T19:46:27;19.70;99.90
21883;DHT22;11106;47.864;13.054;2022-07-29T19:51:28;19.70;99.90
21883;DHT22;11106;47.864;13.054;2022-07-29T19:56:28;19.70;99.90
21883;DHT22;11106;47.864;13.054;2022-07-29T20:01:31;19.50;99.90
21883;DHT22;11106;47.864;13.054;2022-07-29T20:06:32;19.20;99.90
21883;DHT22;11106;47.864;13.054;2022-07-29T20:11:32;19.20;99.90
21883;DHT22;11106;47.864;13.054;2022-07-29T20:16:35;19.20;99.90
21883;DHT22;11106;47.864;13.054;2022-07-29T20:21:36;19.20;99.90
21883;DHT22;11106;47.864;13.054;2022-07-29T20:26:37;19.20;99.90
21883;DHT22;11106;47.864;13.054;2022-07-29T20:31:37;19.10;99.90
21883;DHT22;11106;47.864;13.054;2022-07-29T20:36:39;19.20;99.90
21883;DHT22;11106;47.864;13.054;2022-07-29T20:41:40;19.20;99.90
21883;DHT22;11106;47.864;13.054;2022-07-29T20:46:41;19.00;99.90
21883;DHT22;11106;47.864;13.054;2022-07-29T20:51:41;19.00;99.90
21883;DHT22;11106;47.864;13.054;2022-07-29T20:56:42;19.00;99.90
21883;DHT22;11106;47.864;13.054;2022-07-29T21:18:44;19.00;99.90
21883;DHT22;11106;47.864;13.054;2022-07-29T21:23:47;19.10;99.90
21883;DHT22;11106;47.864;13.054;2022-07-29T21:28:48;19.10;99.90
21883;DHT22;11106;47.864;13.054;2022-07-29T21:33:49;19.00;99.90
21883;DHT22;11106;47.864;13.054;2022-07-29T21:38:49;18.90;99.90
21883;DHT22;11106;47.864;13.054;2022-07-29T21:43:50;18.90;99.90
21883;DHT22;11106;47.864;13.054;2022-07-29T21:48:51;18.90;99.90
21883;DHT22;11106;47.864;13.054;2022-07-29T21:53:52;18.90;99.90
21883;DHT22;11106;47.864;13.054;2022-07-29T21:58:52;18.90;99.90
21883;DHT22;11106;47.864;13.054;2022-07-29T22:03:53;18.90;99.90
21883;DHT22;11106;47.864;13.054;2022-07-29T22:08:53;18.90;99.90
21883;DHT22;11106;47.864;13.054;2022-07-29T22:13:54;18.80;99.90
21883;DHT22;11106;47.864;13.054;2022-07-29T22:18:54;18.80;99.90
